Time;durP1;ratioP1;P1;durP2;ratioP2;P2;SDS_P1;SDS_P2;PMS_P1;PMS_P2;Temp;Humidity;BMP_temperature;BMP_pressure;BME280_temperature;BME280_humidity;BME280_pressure;Samples;Min_cycle;Max_cycle;Signal;HPM_P1;HPM_P2
2022/08/11 00:00:46;;;;;;;7.85;3.33;;;;;;;;;;4805236;29;20059;-84
2022/08/11 00:03:14;;;;;;;6.15;3.08;;;;;;;;;;4800404;29;20051;-83
2022/08/11 00:06:13;;;;;;;15.10;4.10;;;;;;;;;;4786657;29;20043;-82
2022/08/11 00:08:39;;;;;;;4.63;3.17;;;;;;;;;;4802173;29;20898;-83
2022/08/11 00:11:08;;;;;;;8.63;2.95;;;;;;;;;;4794507;29;20118;-82
2022/08/11 00:13:45;;;;;;;6.53;3.33;;;;;;;;;;4809389;29;20039;-85
2022/08/11 00:16:16;;;;;;;8.88;3.65;;;;;;;;;;4790510;29;20451;-84
2022/08/11 00:18:49;;;;;;;6.22;3.10;;;;;;;;;;4805112;29;20043;-85
2022/08/11 00:21:15;;;;;;;4.35;3.30;;;;;;;;;;4776143;29;20079;-83
2022/08/11 00:23:43;;;;;;;8.93;4.13;;;;;;;;;;4797320;29;20058;-82
2022/08/11 00:26:16;;;;;;;6.07;3.63;;;;;;;;;;4777464;29;20058;-86
2022/08/11 00:28:42;;;;;;;7.40;3.33;;;;;;;;;;4789045;29;20511;-82
2022/08/11 00:31:19;;;;;;;6.22;3.67;;;;;;;;;;4804014;29;20194;-86
2022/08/11 00:33:46;;;;;;;6.43;3.75;;;;;;;;;;4792443;29;20054;-85
2022/08/11 00:36:39;;;;;;;8.57;3.88;;;;;;;;;;4794313;29;20138;-84
2022/08/11 00:39:06;;;;;;;8.10;4.07;;;;;;;;;;4787637;29;20061;-85
2022/08/11 00:41:36;;;;;;;5.63;4.47;;;;;;;;;;4800154;29;20059;-84
2022/08/11 00:47:10;;;;;;;7.80;4.35;;;;;;;;;;4804520;29;20083;-85
2022/08/11 00:50:03;;;;;;;7.45;4.00;;;;;;;;;;4781971;29;20043;-85
2022/08/11 00:52:47;;;;;;;9.70;5.05;;;;;;;;;;4752694;30;20063;-84
2022/08/11 00:55:56;;;;;;;10.18;4.20;;;18.20;99.90;;;;;;4792998;29;20042;-83
2022/08/11 00:59:00;;;;;;;15.85;3.97;;;18.20;99.90;;;;;;4815070;29;20047;-87
2022/08/11 01:01:38;;;;;;;5.28;3.70;;;;;;;;;;4801869;29;20071;-84
2022/08/11 01:04:07;;;;;;;5.45;4.10;;;;;;;;;;4810141;29;20701;-84
2022/08/11 01:06:48;;;;;;;7.30;4.38;;;;;;;;;;4801375;29;20137;-86
2022/08/11 01:09:30;;;;;;;5.68;4.10;;;;;;;;;;4796154;29;20046;-85
2022/08/11 01:12:05;;;;;;;10.23;5.03;;;;;;;;;;4791584;29;20067;-86
2022/08/11 01:14:34;;;;;;;10.35;4.55;;;;;;;;;;4823216;29;20051;-86
2022/08/11 01:17:05;;;;;;;7.60;4.43;;;;;;;;;;4804680;29;20051;-86
2022/08/11 01:19:34;;;;;;;8.52;4.80;;;;;;;;;;4782185;29;20138;-86
2022/08/11 01:22:39;;;;;;;13.98;4.80;;;18.10;99.90;;;;;;4797970;29;20057;-84
2022/08/11 01:25:17;;;;;;;9.30;4.97;;;;;;;;;;4794547;29;20086;-86
2022/08/11 01:28:02;;;;;;;6.68;5.13;;;;;;;;;;4804040;29;20055;-85
2022/08/11 01:31:00;;;;;;;9.43;6.05;;;;;;;;;;4796002;29;20067;-85
2022/08/11 01:33:26;;;;;;;8.85;5.70;;;;;;;;;;4792006;29;20073;-85
2022/08/11 01:36:04;;;;;;;10.93;6.07;;;;;;;;;;4797087;29;20041;-83
2022/08/11 01:38:34;;;;;;;13.82;6.78;;;;;;;;;;4801736;29;20074;-85
2022/08/11 01:41:23;;;;;;;10.43;6.40;;;;;;;;;;4774397;29;20508;-86
2022/08/11 01:47:08;;;;;;;15.02;6.60;;;;;;;;;;4817928;29;20050;-85
2022/08/11 01:49:39;;;;;;;15.15;6.70;;;;;;;;;;4798402;29;20058;-85
2022/08/11 01:52:17;;;;;;;10.25;7.00;;;;;;;;;;4798613;29;20048;-83
2022/08/11 01:54:52;;;;;;;9.95;6.78;;;;;;;;;;4794957;29;20414;-86
2022/08/11 01:57:34;;;;;;;12.80;6.93;;;;;;;;;;4778937;29;20051;-88
2022/08/11 02:00:12;;;;;;;9.70;6.90;;;;;;;;;;4801175;29;20047;-84
2022/08/11 02:02:47;;;;;;;10.07;7.32;;;;;;;;;;4806099;29;20127;-85
2022/08/11 02:05:35;;;;;;;10.82;7.57;;;;;;;;;;4789454;29;20050;-85
2022/08/11 02:08:04;;;;;;;13.25;7.32;;;;;;;;;;4786925;29;20088;-83
2022/08/11 02:13:40;;;;;;;11.30;8.57;;;;;;;;;;4816237;29;20046;-85
2022/08/11 02:16:10;;;;;;;13.77;9.45;;;;;;;;;;4808304;29;20061;-85
2022/08/11 02:24:49;;;;;;;17.95;12.43;;;;;;;;;;4805060;29;20000;-84
2022/08/11 02:27:21;;;;;;;23.50;14.20;;;;;;;;;;4805711;29;20067;-85
2022/08/11 02:30:09;;;;;;;20.60;14.25;;;;;;;;;;4787949;29;20404;-85
2022/08/11 02:35:44;;;;;;;20.38;14.05;;;;;;;;;;4801912;29;20055;-86
2022/08/11 02:38:11;;;;;;;17.48;13.63;;;;;;;;;;4804794;29;20490;-87
2022/08/11 02:40:45;;;;;;;20.15;13.07;;;;;;;;;;4791435;29;20058;-85
2022/08/11 02:43:17;;;;;;;20.33;13.50;;;;;;;;;;4802194;29;20055;-85
2022/08/11 02:46:07;;;;;;;17.83;11.98;;;;;;;;;;4776724;29;20054;-87
2022/08/11 02:54:39;;;;;;;15.88;11.43;;;;;;;;;;4783052;29;20041;-84
2022/08/11 02:57:28;;;;;;;14.98;11.98;;;;;;;;;;4801725;29;20076;-85
2022/08/11 03:00:07;;;;;;;21.20;11.27;;;;;;;;;;4806804;29;20642;-87
2022/08/11 03:02:33;;;;;;;16.25;11.60;;;;;;;;;;4790328;29;20104;-84
2022/08/11 03:05:07;;;;;;;17.38;12.85;;;;;;;;;;4808831;29;20074;-86
2022/08/11 03:07:38;;;;;;;15.20;11.30;;;;;;;;;;4804503;29;20055;-86
2022/08/11 03:10:04;;;;;;;13.63;11.02;;;;;;;;;;4806427;29;20054;-84
2022/08/11 03:18:12;;;;;;;20.13;12.32;;;;;;;;;;4799185;29;20078;-85
2022/08/11 03:20:44;;;;;;;16.98;11.80;;;;;;;;;;4775596;29;20106;-84
2022/08/11 03:23:24;;;;;;;14.70;12.93;;;;;;;;;;4790628;29;20523;-84
2022/08/11 03:26:23;;;;;;;;;;;;;;;;;;;;;
2022/08/11 03:29:04;;;;;;;23.58;12.48;;;;;;;;;;4806923;29;20055;-84
2022/08/11 03:37:47;;;;;;;20.85;12.52;;;;;;;;;;4820776;29;20089;-86
2022/08/11 03:43:33;;;;;;;19.20;14.10;;;;;;;;;;4783497;29;20051;-85
2022/08/11 03:46:34;;;;;;;15.93;13.15;;;;;;;;;;4805534;29;20195;-84
2022/08/11 03:52:28;;;;;;;28.00;14.15;;;;;;;;;;4806658;29;20069;-86
2022/08/11 03:55:00;;;;;;;19.80;13.20;;;;;;;;;;4806681;29;20051;-86
2022/08/11 03:57:45;;;;;;;20.75;13.93;;;;;;;;;;4804090;29;20043;-86
2022/08/11 04:00:23;;;;;;;19.65;14.30;;;;;;;;;;4805148;29;20051;-83
2022/08/11 04:03:13;;;;;;;20.75;14.27;;;;;;;;;;4810668;29;20099;-84
2022/08/11 04:05:58;;;;;;;25.15;14.60;;;;;;;;;;4804938;29;20051;-85
2022/08/11 04:08:27;;;;;;;23.15;13.68;;;;;;;;;;4808709;29;20047;-85
2022/08/11 04:11:09;;;;;;;22.50;14.30;;;;;;;;;;4808402;29;20054;-86
2022/08/11 04:13:54;;;;;;;19.52;14.13;;;;;;;;;;4805258;29;20085;-87
2022/08/11 04:16:39;;;;;;;16.02;12.85;;;;;;;;;;4808569;29;20042;-84
2022/08/11 04:19:26;;;;;;;25.80;15.35;;;;;;;;;;4806177;29;20531;-88
2022/08/11 04:25:34;;;;;;;19.42;13.90;;;;;;;;;;4808779;29;20083;-86
2022/08/11 04:28:35;;;;;;;19.73;12.65;;;;;;;;;;4807910;29;20497;-86
2022/08/11 04:31:22;;;;;;;19.73;13.20;;;;;;;;;;4811995;29;20065;-86
2022/08/11 04:37:49;;;;;;;22.63;13.05;;;;;;;;;;4803773;29;20061;-86
2022/08/11 04:46:54;;;;;;;18.92;13.07;;;;;;;;;;4806943;29;20059;-86
2022/08/11 05:01:50;;;;;;;12.80;10.30;;;;;;;;;;4820193;29;20046;-86
2022/08/11 05:07:47;;;;;;;14.48;11.45;;;;;;;;;;4824962;29;20105;-86
2022/08/11 05:10:33;;;;;;;15.68;11.00;;;;;;;;;;4826101;29;20058;-85
2022/08/11 05:57:32;;;;;;;10.07;6.50;;;;;;;;;;4841401;29;20046;-85
2022/08/11 06:00:10;;;;;;;7.60;6.13;;;;;;;;;;4827306;29;20076;-83
2022/08/11 06:02:42;;;;;;;15.75;6.95;;;;;;;;;;4825352;29;20088;-82
2022/08/11 06:05:08;;;;;;;11.77;6.22;;;;;;;;;;4825037;29;20063;-83
2022/08/11 06:07:35;;;;;;;7.72;6.57;;;;;;;;;;4823274;29;20067;-82
2022/08/11 06:10:21;;;;;;;10.65;6.57;;;;;;;;;;4826475;29;20864;-82
2022/08/11 06:12:52;;;;;;;8.63;6.65;;;;;;;;;;4824796;29;20042;-84
2022/08/11 06:15:19;;;;;;;8.38;6.82;;;;;;;;;;4822930;29;20093;-87
2022/08/11 06:17:45;;;;;;;14.70;6.97;;;;;;;;;;4809799;29;20046;-83
2022/08/11 06:20:13;;;;;;;7.07;6.05;;;;;;;;;;4832046;29;20050;-84
2022/08/11 06:22:44;;;;;;;12.38;7.07;;;;;;;;;;4826216;29;20061;-81
2022/08/11 06:25:11;;;;;;;11.25;6.97;;;;;;;;;;4821170;29;20069;-83
2022/08/11 06:27:38;;;;;;;7.35;5.75;;;;;;;;;;4825854;29;20061;-82
2022/08/11 06:30:12;;;;;;;11.85;6.07;;;;;;;;;;4824443;29;20050;-84
2022/08/11 06:32:39;;;;;;;7.65;6.65;;;;;;;;;;4818711;29;20042;-83
2022/08/11 06:35:08;;;;;;;8.73;6.28;;;;;;;;;;4824611;29;20049;-84
2022/08/11 06:37:48;;;;;;;10.15;6.53;;;;;;;;;;4846952;23;20070;-88
2022/08/11 06:40:36;;;;;;;9.98;5.90;;;;;;;;;;4788536;29;20130;-87
2022/08/11 06:43:21;;;;;;;9.48;6.47;;;;;;;;;;4808761;29;20051;-88
2022/08/11 06:46:13;;;;;;;7.20;6.07;;;;;;;;;;4791841;29;20042;-88
2022/08/11 06:51:47;;;;;;;6.68;6.00;;;;;;;;;;4790017;29;20107;-89
2022/08/11 06:54:47;;;;;;;7.30;5.60;;;;;;;;;;4786616;29;20578;-90
2022/08/11 07:00:28;;;;;;;10.75;6.10;;;;;;;;;;4832415;24;20062;-88
2022/08/11 07:03:29;;;;;;;8.32;6.25;;;;;;;;;;4812938;29;20070;-86
2022/08/11 07:06:00;;;;;;;14.52;5.55;;;;;;;;;;4812159;29;20051;-87
2022/08/11 07:29:10;;;;;;;12.98;5.78;;;;;;;;;;4813497;29;20099;-88
2022/08/11 07:31:50;;;;;;;11.52;5.13;;;;;;;;;;4798268;29;20097;-88
2022/08/11 07:34:33;;;;;;;9.63;5.47;;;;;;;;;;4808757;29;20071;-88
2022/08/11 07:37:02;;;;;;;7.30;6.05;;;;;;;;;;4827873;29;20075;-90
2022/08/11 07:39:30;;;;;;;12.25;4.95;;;;;;;;;;4796284;29;20518;-88
2022/08/11 07:41:58;;;;;;;10.65;5.18;;;;;;;;;;4809357;29;20051;-89
2022/08/11 07:44:24;;;;;;;7.28;4.70;;;;;;;;;;4796009;29;20206;-90
2022/08/11 07:52:41;;;;;;;9.25;4.82;;;;;;;;;;4809683;29;20145;-89
2022/08/11 07:55:11;;;;;;;5.18;4.15;;;;;;;;;;4814726;29;20502;-88
2022/08/11 08:18:06;;;;;;;5.38;3.83;;;;;;;;;;4828309;29;20068;-89
2022/08/11 08:20:34;;;;;;;12.80;4.57;;;;;;;;;;4824574;29;20046;-89
2022/08/11 08:23:31;;;;;;;9.25;4.03;;;;;;;;;;4828576;29;20047;-88
2022/08/11 08:39:19;;;;;;;8.07;3.80;;;;;;;;;;4837287;24;20475;-89
2022/08/11 08:42:21;;;;;;;13.05;3.20;;;;;;;;;;4799168;29;20070;-92
2022/08/11 09:00:53;;;;;;;4.97;1.63;;;;;;;;;;4837884;23;20588;-92
2022/08/11 09:03:39;;;;;;;2.95;1.20;;;;;;;;;;4794540;29;20688;-91
2022/08/11 09:06:15;;;;;;;7.25;1.60;;;;;;;;;;4807082;24;20119;-91
2022/08/11 09:15:07;;;;;;;3.83;1.85;;;;;;;;;;4846017;29;20041;-91
2022/08/11 09:17:41;;;;;;;4.10;1.67;;;;;;;;;;4795224;29;20491;-89
2022/08/11 09:20:10;;;;;;;;;;;;;;;;;;4818217;29;20109;-93
2022/08/11 09:29:11;;;;;;;4.40;2.90;;;;;;;;;;4816312;29;20436;-89
2022/08/11 10:17:07;;;;;;;5.70;2.00;;;;;;;;;;4801137;29;20526;-78
2022/08/11 10:19:37;;;;;;;5.07;1.40;;;;;;;;;;4801587;29;20051;-78
2022/08/11 10:27:38;;;;;;;5.05;1.30;;;;;;;;;;4770277;29;20050;-82
2022/08/11 10:35:42;;;;;;;2.97;1.30;;;;;;;;;;4800159;29;20408;-79
2022/08/11 10:38:08;;;;;;;4.50;1.50;;;;;;;;;;4800218;29;20879;-87
2022/08/11 10:40:34;;;;;;;2.78;1.35;;;;;;;;;;4799775;29;20516;-78
2022/08/11 10:43:09;;;;;;;2.38;1.20;;;;;;;;;;4799132;29;20058;-79
2022/08/11 10:48:28;;;;;;;2.92;0.90;;;;;;;;;;4784598;29;20126;-80
2022/08/11 10:51:13;;;;;;;5.55;1.08;;;;;;;;;;4771170;29;20443;-80
2022/08/11 10:59:13;;;;;;;4.72;1.20;;;;;;;;;;4799806;29;20130;-79
2022/08/11 11:01:42;;;;;;;3.25;1.75;;;;;;;;;;4786618;29;20054;-78
2022/08/11 11:04:19;;;;;;;1.58;0.93;;;;;;;;;;4799689;29;20063;-85
2022/08/11 11:06:54;;;;;;;2.78;1.38;;;;;;;;;;4800109;29;20472;-78
2022/08/11 11:09:32;;;;;;;1.60;1.10;;;;;;;;;;4800302;29;20050;-81
2022/08/11 11:18:00;;;;;;;3.35;1.17;;;;;;;;;;4798902;29;20043;-78
2022/08/11 11:20:33;;;;;;;3.20;1.20;;;;;;;;;;4782694;29;20054;-79
2022/08/11 11:23:18;;;;;;;3.50;1.10;;;;;;;;;;4799939;29;20050;-82
2022/08/11 11:29:10;;;;;;;11.30;1.87;;;;;;;;;;4789093;29;20053;-83
2022/08/11 11:31:53;;;;;;;5.00;1.33;;;;;;;;;;4786086;29;20058;-87
2022/08/11 11:34:37;;;;;;;5.97;1.25;;;;;;;;;;4805955;29;20035;-79
2022/08/11 11:37:05;;;;;;;5.35;1.50;;;;;;;;;;4798511;29;20568;-80
2022/08/11 11:39:32;;;;;;;7.45;1.35;;;;;;;;;;4799299;29;20512;-78
2022/08/11 11:42:05;;;;;;;10.63;1.60;;;;;;;;;;4782646;29;20385;-82
2022/08/11 11:44:32;;;;;;;6.45;1.58;;;;;;;;;;4799776;29;20043;-85
2022/08/11 11:46:59;;;;;;;6.60;1.58;;;;;;;;;;4800353;29;20039;-80
2022/08/11 11:49:27;;;;;;;4.05;1.40;;;;;;;;;;4770447;29;20153;-79
2022/08/11 11:51:54;;;;;;;8.20;1.40;;;;;;;;;;4799742;29;20419;-84
2022/08/11 11:54:22;;;;;;;5.70;1.40;;;;;;;;;;4789675;29;20535;-82
2022/08/11 11:56:52;;;;;;;8.38;1.42;;;;;;;;;;4774565;29;20500;-79
2022/08/11 12:02:10;;;;;;;8.38;2.22;;;;;;;;;;4816770;29;20046;-86
2022/08/11 12:04:37;;;;;;;6.53;1.40;;;;;;;;;;4822703;29;20106;-79
2022/08/11 12:09:49;;;;;;;4.18;1.63;;;;;;;;;;4781811;29;20402;-79
2022/08/11 12:15:03;;;;;;;3.67;1.77;;;;;;;;;;4801650;29;20065;-89
2022/08/11 12:17:29;;;;;;;3.90;1.73;;;;;;;;;;4786655;29;20050;-77
2022/08/11 12:19:55;;;;;;;3.83;1.40;;;;;;;;;;4806257;29;20416;-88
2022/08/11 12:27:55;;;;;;;3.80;1.67;;;;;;;;;;4790670;29;20116;-81
2022/08/11 12:30:22;;;;;;;5.32;2.05;;;;;;;;;;4788921;29;20062;-78
2022/08/11 12:32:48;;;;;;;8.13;2.17;;;;;;;;;;4806356;29;20057;-78
2022/08/11 12:35:15;;;;;;;5.30;1.90;;;;;;;;;;4814149;29;20043;-78
2022/08/11 12:37:45;;;;;;;5.63;1.75;;;;;;;;;;4805506;29;20130;-77
2022/08/11 12:45:46;;;;;;;10.25;1.85;;;;;;;;;;4802486;29;20050;-89
2022/08/11 12:54:00;;;;;;;6.93;1.75;;;;;;;;;;4804343;29;20157;-77
2022/08/11 13:04:54;;;;;;;3.22;1.55;;;;;;;;;;4805276;29;20055;-79
2022/08/11 13:07:22;;;;;;;5.78;1.75;;;;;;;;;;4794187;29;20054;-77
2022/08/11 13:09:48;;;;;;;5.07;1.40;;;;;;;;;;4789667;29;20054;-78
2022/08/11 13:15:01;;;;;;;6.50;1.38;;;;;;;;;;4804236;29;20129;-77
2022/08/11 13:17:28;;;;;;;4.93;1.45;;;;;;;;;;4786475;29;20159;-77
2022/08/11 13:19:55;;;;;;;2.33;1.40;;;;;;;;;;4801341;29;20565;-82
2022/08/11 13:22:23;;;;;;;3.65;1.10;;;;;;;;;;4806046;29;20054;-79
2022/08/11 13:24:50;;;;;;;3.42;1.35;;;;;;;;;;4800965;29;20074;-77
2022/08/11 13:27:17;;;;;;;5.80;2.15;;;;;;;;;;4803444;29;20042;-78
2022/08/11 13:29:45;;;;;;;7.70;1.50;;;;;;;;;;4788355;29;20034;-76
2022/08/11 13:32:11;;;;;;;4.20;1.35;;;;;;;;;;4798921;29;20132;-79
2022/08/11 13:34:41;;;;;;;2.58;1.45;;;;;;;;;;4815300;29;20047;-79
2022/08/11 13:37:10;;;;;;;2.70;1.40;;;;;;;;;;4793056;29;20588;-78
2022/08/11 13:39:38;;;;;;;6.00;1.65;;;;;;;;;;4793604;29;20057;-78
2022/08/11 13:42:04;;;;;;;6.30;1.73;;;;;;;;;;4815744;29;20062;-78
2022/08/11 13:44:32;;;;;;;9.40;1.60;;;;;;;;;;4804381;29;20509;-78
2022/08/11 13:47:00;;;;;;;8.98;2.22;;;;;;;;;;4804341;29;20039;-77
2022/08/11 13:49:26;;;;;;;5.85;1.90;;;;;;;;;;4818621;29;20062;-80
2022/08/11 13:51:54;;;;;;;8.95;1.95;;;28.90;99.90;;;;;;4805925;29;20054;-77
2022/08/11 13:54:25;;;;;;;8.13;2.20;;;;;;;;;;4803246;29;20523;-83
2022/08/11 13:56:53;;;;;;;5.80;1.65;;;;;;;;;;4803930;29;20043;-79
2022/08/11 13:59:21;;;;;;;7.00;1.30;;;;;;;;;;4803074;29;20219;-79
2022/08/11 14:01:49;;;;;;;4.72;1.52;;;;;;;;;;4803727;29;20050;-79
2022/08/11 14:04:18;;;;;;;4.70;1.50;;;;;;;;;;4786746;29;20057;-78
2022/08/11 14:06:45;;;;;;;2.88;1.52;;;;;;;;;;4803959;29;20078;-78
2022/08/11 14:09:15;;;;;;;9.52;1.60;;;;;;;;;;4804950;29;20389;-77
2022/08/11 14:14:32;;;;;;;9.45;1.65;;;;;;;;;;4804163;29;20531;-81
2022/08/11 14:17:03;;;;;;;7.72;1.63;;;31.30;99.90;;;;;;4805065;29;20462;-83
2022/08/11 14:19:32;;;;;;;9.85;1.80;;;;;;;;;;4807608;29;20039;-77
2022/08/11 14:22:08;;;;;;;1.52;1.10;;;;;;;;;;4813242;29;20657;-84
2022/08/11 14:24:42;;;;;;;5.75;1.80;;;;;;;;;;4805300;29;20057;-81
2022/08/11 14:27:10;;;;;;;9.60;1.73;;;;;;;;;;4808111;29;20194;-76
2022/08/11 14:29:39;;;;;;;4.63;1.92;;;31.00;99.90;;;;;;4807259;29;20051;-76
2022/08/11 14:32:06;;;;;;;3.72;1.58;;;;;;;;;;4808236;29;20046;-76
2022/08/11 14:34:33;;;;;;;5.00;1.92;;;;;;;;;;4813967;29;20031;-84
2022/08/11 14:37:14;;;;;;;4.80;1.50;;;;;;;;;;4791337;29;20054;-80
2022/08/11 14:39:44;;;;;;;5.72;1.77;;;;;;;;;;4796734;29;20268;-85
2022/08/11 14:47:48;;;;;;;4.50;1.42;;;;;;;;;;4794104;29;20193;-77
2022/08/11 14:50:17;;;;;;;7.40;1.10;;;;;;;;;;4805273;29;20051;-88
2022/08/11 14:53:05;;;;;;;7.25;1.70;;;;;;;;;;4791175;29;20047;-89
2022/08/11 14:58:22;;;;;;;6.10;1.42;;;;;;;;;;4793612;29;20587;-79
2022/08/11 15:00:51;;;;;;;9.93;1.60;;;;;;;;;;4808645;29;20062;-79
2022/08/11 15:03:17;;;;;;;9.90;2.15;;;;;;;;;;4806449;29;20055;-80
2022/08/11 15:05:51;;;;;;;5.20;1.92;;;;;;;;;;4789918;29;20093;-77
2022/08/11 15:08:18;;;;;;;8.68;1.75;;;;;;;;;;4805024;29;20045;-84
2022/08/11 15:10:45;;;;;;;9.38;2.20;;;;;;;;;;4807059;29;20055;-80
2022/08/11 15:13:12;;;;;;;7.43;1.98;;;;;;;;;;4804703;29;20066;-78
2022/08/11 15:18:25;;;;;;;10.93;1.73;;;;;;;;;;4807773;29;20055;-88
2022/08/11 15:37:35;;;;;;;5.28;1.55;;;;;;;;;;4805705;29;20457;-76
2022/08/11 15:46:02;;;;;;;9.40;1.60;;;;;;;;;;4810095;29;20057;-76
2022/08/11 15:48:49;;;;;;;6.45;1.60;;;;;;;;;;4796588;29;20079;-80
2022/08/11 15:51:23;;;;;;;8.00;1.50;;;;;;;;;;4798801;29;20744;-76
2022/08/11 15:53:51;;;;;;;8.40;1.90;;;;;;;;;;4802688;29;20421;-76
2022/08/11 15:56:17;;;;;;;5.65;1.50;;;;;;;;;;4801760;29;20121;-77
2022/08/11 16:04:18;;;;;;;6.50;1.67;;;;;;;;;;4798803;29;20067;-82
2022/08/11 16:06:50;;;;;;;3.33;1.50;;;;;;;;;;4792460;29;20054;-77
2022/08/11 16:09:19;;;;;;;3.25;1.50;;;;;;;;;;4783601;29;20051;-83
2022/08/11 16:11:48;;;;;;;3.65;1.88;;;;;;;;;;4801283;29;20067;-81
2022/08/11 16:17:01;;;;;;;5.68;2.00;;;;;;;;;;4800307;29;20042;-75
2022/08/11 16:19:34;;;;;;;5.57;1.30;;;;;;;;;;4800912;29;20483;-79
2022/08/11 16:22:02;;;;;;;5.57;1.83;;;;;;;;;;4788008;29;20042;-76
2022/08/11 16:24:29;;;;;;;4.53;1.42;;;;;;;;;;4796887;29;20137;-78
2022/08/11 16:26:56;;;;;;;5.45;1.50;;;;;;;;;;4801433;29;20510;-76
2022/08/11 16:29:24;;;;;;;8.25;1.63;;;30.50;99.90;;;;;;4805230;29;20103;-77
2022/08/11 16:40:09;;;;;;;1.75;1.50;;;;;;;;;;4805961;29;20047;-83
2022/08/11 16:48:07;;;;;;;4.70;1.50;;;;;;;;;;4798264;29;20443;-76
2022/08/11 16:50:34;;;;;;;4.28;1.42;;;30.00;99.90;;;;;;4802493;29;20050;-82
2022/08/11 16:53:00;;;;;;;6.00;1.40;;;;;;;;;;4785234;29;20181;-86
2022/08/11 16:55:30;;;;;;;3.05;1.70;;;;;;;;;;4801196;29;20110;-79
2022/08/11 17:00:42;;;;;;;2.25;1.40;;;;;;;;;;4800966;29;20083;-81
2022/08/11 17:14:20;;;;;;;5.32;1.30;;;;;;;;;;4789892;29;20062;-80
2022/08/11 17:16:48;;;;;;;3.83;1.42;;;;;;;;;;4790195;29;20069;-75
2022/08/11 17:19:22;;;;;;;6.53;1.27;;;;;;;;;;4787608;29;20057;-80
2022/08/11 17:24:35;;;;;;;5.60;1.02;;;;;;;;;;4788248;29;20042;-77
2022/08/11 17:27:02;;;;;;;3.78;1.20;;;;;;;;;;4803561;29;20046;-79
2022/08/11 17:29:31;;;;;;;3.13;1.17;;;;;;;;;;4806388;29;20058;-77
2022/08/11 17:37:31;;;;;;;4.15;1.00;;;;;;;;;;4806922;29;20082;-78
2022/08/11 17:40:03;;;;;;;9.48;1.15;;;;;;;;;;4808724;29;20051;-79
2022/08/11 17:50:49;;;;;;;3.17;1.10;;;;;;;;;;4785390;29;20047;-83
2022/08/11 18:01:34;;;;;;;7.43;1.30;;;;;;;;;;4797399;29;20058;-87
2022/08/11 18:04:01;;;;;;;5.93;1.20;;;;;;;;;;4789496;29;20143;-83
2022/08/11 18:06:29;;;;;;;1.50;1.38;;;;;;;;;;4805831;29;20051;-83
